createdAt,value
2022-09-01T00:00:22.880Z,52.81
2022-09-01T00:03:11.575Z,52.88
2022-09-01T00:05:46.496Z,52.91
2022-09-01T00:08:20.529Z,52.94
2022-09-01T00:10:54.317Z,53.10
2022-09-01T00:13:27.880Z,53.20
2022-09-01T00:18:55.833Z,53.36
2022-09-01T00:21:32.818Z,53.34
2022-09-01T00:24:07.997Z,53.46
2022-09-01T00:26:41.774Z,53.44
2022-09-01T00:29:15.791Z,53.53
2022-09-01T00:31:49.284Z,53.73
2022-09-01T00:34:23.337Z,53.71
2022-09-01T00:36:56.714Z,53.95
2022-09-01T00:39:30.006Z,54.10
2022-09-01T00:42:03.354Z,54.09
2022-09-01T00:44:39.377Z,54.23
2022-09-01T00:47:13.876Z,54.28
2022-09-01T00:49:49.841Z,54.20
2022-09-01T00:52:31.701Z,54.27
2022-09-01T00:55:10.386Z,54.30
2022-09-01T00:58:06.381Z,54.44
2022-09-01T01:00:56.001Z,54.65
2022-09-01T01:03:30.575Z,54.68
2022-09-01T01:06:08.656Z,54.71
2022-09-01T01:08:57.764Z,54.76
2022-09-01T01:11:33.780Z,54.84
2022-09-01T01:14:12.709Z,54.96
2022-09-01T01:16:48.657Z,55.04
2022-09-01T01:19:46.076Z,55.10
2022-09-01T01:22:44.350Z,55.30
2022-09-01T01:25:19.996Z,55.19
2022-09-01T01:27:53.795Z,55.42
2022-09-01T01:30:28.539Z,55.59
2022-09-01T01:33:02.630Z,55.61
2022-09-01T01:35:38.170Z,55.55
2022-09-01T01:38:12.059Z,55.52
2022-09-01T01:40:45.920Z,55.61
2022-09-01T01:43:22.570Z,55.73
2022-09-01T01:45:59.588Z,55.85
2022-09-01T01:48:40.104Z,55.92
2022-09-01T01:51:14.350Z,56.01
2022-09-01T01:53:48.210Z,56.00
2022-09-01T01:56:23.304Z,56.29
2022-09-01T01:58:59.159Z,56.18
2022-09-01T02:01:33.847Z,56.30
2022-09-01T02:04:07.937Z,56.47
2022-09-01T02:06:46.591Z,56.51
2022-09-01T02:09:24.203Z,56.77
2022-09-01T02:11:59.099Z,56.68
2022-09-01T02:14:33.032Z,56.77
2022-09-01T02:17:07.808Z,56.74
2022-09-01T02:19:43.919Z,56.72
2022-09-01T02:22:20.406Z,56.82
2022-09-01T02:24:54.305Z,56.95
2022-09-01T02:27:29.940Z,56.90
2022-09-01T02:30:03.703Z,56.99
2022-09-01T02:32:37.609Z,57.03
2022-09-01T02:35:13.776Z,57.19
2022-09-01T02:37:50.089Z,57.24
2022-09-01T02:40:24.883Z,57.34
2022-09-01T02:43:00.430Z,57.30
2022-09-01T02:45:33.813Z,57.43
2022-09-01T02:48:10.395Z,57.63
2022-09-01T02:50:44.775Z,57.66
2022-09-01T02:53:20.230Z,57.72
2022-09-01T02:55:54.838Z,57.85
2022-09-01T02:58:28.964Z,57.73
2022-09-01T03:01:02.851Z,57.97
2022-09-01T03:03:39.511Z,57.91
2022-09-01T03:06:13.348Z,57.93
2022-09-01T03:08:47.180Z,57.97
2022-09-01T03:11:24.169Z,58.11
2022-09-01T03:13:58.098Z,58.27
2022-09-01T03:16:32.326Z,58.38
2022-09-01T03:19:09.384Z,58.34
2022-09-01T03:21:45.270Z,58.36
2022-09-01T03:24:22.323Z,58.47
2022-09-01T03:26:57.205Z,58.25
2022-09-01T03:29:30.920Z,58.43
2022-09-01T03:32:05.354Z,58.37
2022-09-01T03:34:39.820Z,58.44
2022-09-01T03:37:13.019Z,58.56
2022-09-01T03:39:47.038Z,58.73
2022-09-01T03:42:26.390Z,58.68
2022-09-01T03:44:59.870Z,58.70
2022-09-01T03:47:33.959Z,58.82
2022-09-01T03:50:09.734Z,58.83
2022-09-01T03:52:46.040Z,58.88
2022-09-01T03:55:23.781Z,58.86
2022-09-01T03:58:00.655Z,59.02
2022-09-01T04:00:36.443Z,59.15
2022-09-01T04:03:13.290Z,59.14
2022-09-01T04:05:48.208Z,59.04
2022-09-01T04:08:25.838Z,59.21
2022-09-01T04:11:00.541Z,59.27
2022-09-01T04:13:37.850Z,59.27
2022-09-01T04:16:35.721Z,59.39
2022-09-01T04:19:16.484Z,59.47
2022-09-01T04:21:52.052Z,59.46
2022-09-01T04:24:28.561Z,59.42
2022-09-01T04:27:04.388Z,59.52
2022-09-01T04:29:38.493Z,59.67
2022-09-01T04:32:13.582Z,59.64
2022-09-01T04:34:55.986Z,59.71
2022-09-01T04:37:29.505Z,59.64
2022-09-01T04:40:07.587Z,59.74
2022-09-01T04:42:42.417Z,59.72
2022-09-01T04:45:20.439Z,59.87
2022-09-01T04:47:55.866Z,59.91
2022-09-01T04:50:31.474Z,59.86
2022-09-01T04:53:28.497Z,60.02
2022-09-01T04:56:07.179Z,60.00
2022-09-01T04:58:44.222Z,60.28
2022-09-01T05:01:23.791Z,60.32
2022-09-01T05:03:59.551Z,60.27
2022-09-01T05:06:44.358Z,60.26
2022-09-01T05:09:20.457Z,60.30
2022-09-01T05:12:17.081Z,60.13
2022-09-01T05:14:54.202Z,60.21
2022-09-01T05:17:29.483Z,60.34
2022-09-01T05:20:03.652Z,60.24
2022-09-01T05:22:38.663Z,60.18
2022-09-01T05:25:14.604Z,60.05
2022-09-01T05:27:53.055Z,60.02
2022-09-01T05:30:28.983Z,59.93
2022-09-01T05:33:02.045Z,59.92
2022-09-01T05:35:35.573Z,59.81
2022-09-01T05:38:16.051Z,59.76
2022-09-01T05:40:59.731Z,59.66
2022-09-01T05:43:34.040Z,59.46
2022-09-01T05:46:10.716Z,59.52
2022-09-01T05:48:44.930Z,59.26
2022-09-01T05:51:42.770Z,59.20
2022-09-01T05:54:15.190Z,58.89
2022-09-01T05:56:49.269Z,58.82
2022-09-01T05:59:28.070Z,58.66
2022-09-01T06:02:09.616Z,58.52
2022-09-01T06:04:44.532Z,58.33
2022-09-01T06:07:28.784Z,58.29
2022-09-01T06:10:02.865Z,58.09
2022-09-01T06:12:36.538Z,57.79
2022-09-01T06:15:16.524Z,57.68
2022-09-01T06:17:53.854Z,57.35
2022-09-01T06:20:28.121Z,57.11
2022-09-01T06:23:02.739Z,56.46
2022-09-01T06:25:38.105Z,56.84
2022-09-01T06:28:12.618Z,57.08
2022-09-01T06:30:49.459Z,56.09
2022-09-01T06:33:25.619Z,55.15
2022-09-01T06:35:59.385Z,55.09
2022-09-01T06:38:33.571Z,56.19
2022-09-01T06:41:13.391Z,53.22
2022-09-01T06:43:47.320Z,51.13
2022-09-01T06:46:22.038Z,51.30
2022-09-01T06:48:56.825Z,48.83
2022-09-01T06:51:32.130Z,45.90
2022-09-01T06:54:11.291Z,42.96
2022-09-01T06:56:51.934Z,40.26
2022-09-01T06:59:34.737Z,37.89
2022-09-01T07:02:12.637Z,35.46
2022-09-01T07:05:08.352Z,33.35
2022-09-01T07:16:52.111Z,26.85
2022-09-01T07:19:48.221Z,25.83
2022-09-01T07:23:02.950Z,24.78
2022-09-01T07:25:17.770Z,23.89
2022-09-01T07:30:55.825Z,23.17
2022-09-01T07:33:51.683Z,22.79
2022-09-01T07:36:27.250Z,22.17
2022-09-01T07:42:59.097Z,23.56
2022-09-01T07:45:29.700Z,23.29
2022-09-01T07:48:10.388Z,23.90
2022-09-01T07:53:48.792Z,25.34
2022-09-01T07:56:24.871Z,26.16
2022-09-01T07:58:59.135Z,26.53
2022-09-01T08:01:32.745Z,26.66
2022-09-01T08:04:06.933Z,26.98
2022-09-01T08:06:41.215Z,27.27
2022-09-01T08:09:27.336Z,27.64
2022-09-01T08:12:10.513Z,26.47
2022-09-01T08:14:47.165Z,25.30
2022-09-01T08:17:51.699Z,25.09
2022-09-01T08:20:17.869Z,25.35
2022-09-01T08:22:58.270Z,25.90
2022-09-01T08:25:41.264Z,26.51
2022-09-01T08:28:26.537Z,27.35
2022-09-01T08:31:01.629Z,28.13
2022-09-01T08:33:35.968Z,28.72
2022-09-01T08:36:12.690Z,29.34
2022-09-01T08:38:46.461Z,29.86
2022-09-01T08:41:28.783Z,30.50
2022-09-01T08:44:21.592Z,31.34
2022-09-01T08:47:01.667Z,31.97
2022-09-01T08:49:44.539Z,32.76
2022-09-01T08:52:35.628Z,33.60
2022-09-01T08:55:18.042Z,34.56
2022-09-01T08:57:58.487Z,35.14
2022-09-01T09:00:43.485Z,35.50
2022-09-01T09:03:40.492Z,35.67
2022-09-01T09:06:19.263Z,35.89
2022-09-01T09:09:05.498Z,36.27
2022-09-01T09:11:51.749Z,36.64
2022-09-01T09:14:39.275Z,36.89
2022-09-01T09:17:14.772Z,37.10
2022-09-01T09:19:48.478Z,36.90
2022-09-01T09:22:22.787Z,36.68
2022-09-01T09:25:00.944Z,36.92
2022-09-01T09:27:36.193Z,37.04
2022-09-01T09:30:13.157Z,36.89
2022-09-01T09:35:50.767Z,36.73
2022-09-01T09:38:33.230Z,37.04
2022-09-01T09:41:27.482Z,37.56
2022-09-01T09:44:16.449Z,38.05
2022-09-01T09:46:50.745Z,38.04
2022-09-01T09:49:36.659Z,38.15
2022-09-01T09:52:20.059Z,38.26
2022-09-01T09:55:05.864Z,38.15
2022-09-01T09:57:43.601Z,38.14
2022-09-01T10:00:25.746Z,37.74
2022-09-01T10:03:08.678Z,37.42
2022-09-01T10:05:48.815Z,36.54
2022-09-01T10:08:45.476Z,35.75
2022-09-01T10:11:35.856Z,35.87
2022-09-01T10:14:51.821Z,35.90
2022-09-01T10:17:16.603Z,35.79
2022-09-01T10:19:56.281Z,35.85
2022-09-01T10:22:29.388Z,35.40
2022-09-01T10:25:03.502Z,35.05
2022-09-01T10:27:42.364Z,35.09
2022-09-01T10:30:20.748Z,35.19
2022-09-01T10:32:58.888Z,35.22
2022-09-01T10:35:39.803Z,35.54
2022-09-01T10:38:19.592Z,35.62
2022-09-01T10:41:08.696Z,35.76
2022-09-01T10:43:45.496Z,35.73
2022-09-01T10:46:50.811Z,35.74
2022-09-01T10:49:54.641Z,35.48
2022-09-01T10:53:01.770Z,35.72
2022-09-01T10:55:49.193Z,35.76
2022-09-01T11:02:35.254Z,34.73
2022-09-01T11:05:20.605Z,34.59
2022-09-01T11:08:01.584Z,34.56
2022-09-01T11:10:51.749Z,34.70
2022-09-01T11:13:50.302Z,34.72
2022-09-01T11:16:50.009Z,34.71
2022-09-01T11:19:46.279Z,34.95
2022-09-01T11:22:33.021Z,34.80
2022-09-01T11:25:39.899Z,34.40
2022-09-01T11:28:42.022Z,34.14
2022-09-01T11:31:41.293Z,34.54
2022-09-01T11:34:20.798Z,34.79
2022-09-01T11:37:01.499Z,34.11
2022-09-01T11:39:43.994Z,33.59
2022-09-01T11:42:23.564Z,32.74
2022-09-01T11:45:02.417Z,32.50
2022-09-01T11:47:38.162Z,32.89
2022-09-01T11:50:22.537Z,33.16
2022-09-01T11:53:05.429Z,33.55
2022-09-01T11:55:42.037Z,33.84
2022-09-01T11:58:32.498Z,33.64
2022-09-01T12:01:18.839Z,33.92
2022-09-01T12:03:53.575Z,33.58
2022-09-01T12:06:29.827Z,33.37
2022-09-01T12:09:05.296Z,33.56
2022-09-01T12:11:42.950Z,33.54
2022-09-01T12:14:24.220Z,33.43
2022-09-01T12:17:06.889Z,34.00
2022-09-01T12:19:40.356Z,33.65
2022-09-01T12:22:22.755Z,32.28
2022-09-01T12:24:56.629Z,29.96
2022-09-01T12:27:29.830Z,28.47
2022-09-01T12:30:03.218Z,28.24
2022-09-01T12:32:37.589Z,28.31
2022-09-01T12:35:20.132Z,28.51
2022-09-01T12:37:54.021Z,28.73
2022-09-01T12:40:34.402Z,29.04
2022-09-01T12:43:08.128Z,29.45
2022-09-01T12:45:47.378Z,29.99
2022-09-01T12:48:33.499Z,30.17
2022-09-01T12:51:20.108Z,30.54
2022-09-01T12:53:58.743Z,30.48
2022-09-01T12:56:39.365Z,30.38
2022-09-01T12:59:17.811Z,30.68
2022-09-01T13:01:53.966Z,30.89
2022-09-01T13:04:34.402Z,30.88
2022-09-01T13:07:09.241Z,31.00
2022-09-01T13:09:42.786Z,30.53
2022-09-01T13:12:20.813Z,30.42
2022-09-01T13:14:54.346Z,30.34
2022-09-01T13:17:27.727Z,30.39
2022-09-01T13:20:01.611Z,30.27
2022-09-01T13:22:35.472Z,30.22
2022-09-01T13:25:11.207Z,30.16
2022-09-01T13:27:45.300Z,30.23
2022-09-01T13:30:20.767Z,30.31
2022-09-01T13:35:48.255Z,31.02
2022-09-01T13:38:21.611Z,31.40
2022-09-01T13:40:55.157Z,31.79
2022-09-01T13:43:28.783Z,31.94
2022-09-01T13:46:02.478Z,32.48
2022-09-01T13:51:31.384Z,33.01
2022-09-01T13:54:05.020Z,33.32
2022-09-01T13:56:40.715Z,33.70
2022-09-01T13:59:14.433Z,33.83
2022-09-01T14:01:47.564Z,34.04
2022-09-01T14:04:23.285Z,34.23
2022-09-01T14:06:56.642Z,34.14
2022-09-01T14:09:32.715Z,34.22
2022-09-01T14:12:06.975Z,33.92
2022-09-01T14:17:34.285Z,33.22
2022-09-01T14:20:12.682Z,33.16
2022-09-01T14:22:46.208Z,33.51
2022-09-01T14:25:21.487Z,33.72
2022-09-01T14:27:55.055Z,33.95
2022-09-01T14:30:31.694Z,34.05
2022-09-01T14:33:06.204Z,34.19
2022-09-01T14:35:41.583Z,34.56
2022-09-01T14:38:15.610Z,34.60
2022-09-01T14:40:52.815Z,34.51
2022-09-01T14:43:26.297Z,34.11
2022-09-01T14:46:11.728Z,34.12
2022-09-01T14:48:45.419Z,34.12
2022-09-01T14:51:25.540Z,34.35
2022-09-01T14:53:59.178Z,34.47
2022-09-01T14:56:33.085Z,34.74
2022-09-01T14:59:06.652Z,34.92
2022-09-01T15:01:39.597Z,34.54
2022-09-01T15:04:13.099Z,34.02
2022-09-01T15:06:46.341Z,33.77
2022-09-01T15:09:19.427Z,33.53
2022-09-01T15:11:52.377Z,33.50
2022-09-01T15:14:25.517Z,33.61
2022-09-01T15:16:58.678Z,33.72
2022-09-01T15:19:31.707Z,33.84
2022-09-01T15:22:07.242Z,33.71
2022-09-01T15:24:40.317Z,33.69
2022-09-01T15:27:13.445Z,33.63
2022-09-01T15:29:48.069Z,33.61
2022-09-01T15:32:27.625Z,33.94
2022-09-01T15:35:01.557Z,34.22
2022-09-01T15:37:34.628Z,34.14
2022-09-01T15:40:10.091Z,34.18
2022-09-01T15:42:43.109Z,34.15
2022-09-01T15:45:18.311Z,34.12
2022-09-01T15:47:52.009Z,34.02
2022-09-01T15:50:27.754Z,34.04
2022-09-01T15:53:03.920Z,34.03
2022-09-01T15:55:43.703Z,34.01
2022-09-01T15:58:19.755Z,34.26
2022-09-01T16:00:52.971Z,34.13
2022-09-01T16:03:26.796Z,34.24
2022-09-01T16:06:06.575Z,34.17
2022-09-01T16:08:40.529Z,34.17
2022-09-01T16:11:14.739Z,34.42
2022-09-01T16:13:48.037Z,34.58
2022-09-01T16:16:40.568Z,34.68
2022-09-01T16:19:28.395Z,34.93
2022-09-01T16:22:12.132Z,35.01
2022-09-01T16:24:48.121Z,34.95
2022-09-01T16:27:24.793Z,35.15
2022-09-01T16:30:03.585Z,35.31
2022-09-01T16:32:37.183Z,35.35
2022-09-01T16:35:11.315Z,35.21
2022-09-01T16:37:56.202Z,35.43
2022-09-01T16:40:42.658Z,35.46
2022-09-01T16:43:27.183Z,35.56
2022-09-01T16:46:09.207Z,35.69
2022-09-01T16:48:47.505Z,35.90
2022-09-01T16:51:29.051Z,35.92
2022-09-01T16:54:16.194Z,36.12
2022-09-01T16:56:56.821Z,36.25
2022-09-01T16:59:38.362Z,36.38
2022-09-01T17:02:32.005Z,36.37
2022-09-01T17:05:15.251Z,36.43
2022-09-01T17:07:54.308Z,36.52
2022-09-01T17:10:41.456Z,36.73
2022-09-01T17:13:23.933Z,36.95
2022-09-01T17:16:07.100Z,37.04
2022-09-01T17:18:44.759Z,37.23
2022-09-01T17:21:23.887Z,37.49
2022-09-01T17:24:00.666Z,37.61
2022-09-01T17:26:37.411Z,37.76
2022-09-01T17:29:23.811Z,37.95
2022-09-01T17:32:04.508Z,38.23
2022-09-01T17:34:48.743Z,38.29
2022-09-01T17:37:33.418Z,38.37
2022-09-01T17:40:20.398Z,38.58
2022-09-01T17:43:01.389Z,38.79
2022-09-01T17:45:51.982Z,38.73
2022-09-01T17:48:39.051Z,39.00
2022-09-01T17:51:20.566Z,39.20
2022-09-01T17:54:01.312Z,39.42
2022-09-01T17:56:43.533Z,39.40
2022-09-01T17:59:23.096Z,39.70
2022-09-01T18:02:09.245Z,39.85
2022-09-01T18:04:53.583Z,39.95
2022-09-01T18:07:43.066Z,40.04
2022-09-01T18:10:22.043Z,40.27
2022-09-01T18:13:03.927Z,40.39
2022-09-01T18:15:52.089Z,40.62
2022-09-01T18:18:41.020Z,40.91
2022-09-01T18:21:16.990Z,40.89
2022-09-01T18:23:53.206Z,41.10
2022-09-01T18:26:33.222Z,41.25
2022-09-01T18:29:08.521Z,41.35
2022-09-01T18:32:09.864Z,41.52
2022-09-01T18:34:56.221Z,41.64
2022-09-01T18:37:38.945Z,41.81
2022-09-01T18:40:23.363Z,42.02
2022-09-01T18:43:05.415Z,42.11
2022-09-01T18:45:45.643Z,42.19
2022-09-01T18:51:21.285Z,42.51
2022-09-01T18:53:59.232Z,42.75
2022-09-01T18:56:40.085Z,42.88
2022-09-01T18:59:37.018Z,43.11
2022-09-01T19:02:39.154Z,43.15
2022-09-01T19:05:32.710Z,43.37
2022-09-01T19:08:19.750Z,43.63
2022-09-01T19:11:00.573Z,43.69
2022-09-01T19:13:50.331Z,43.82
2022-09-01T19:16:36.302Z,44.03
2022-09-01T19:19:26.893Z,44.15
2022-09-01T19:22:01.212Z,44.26
2022-09-01T19:24:39.749Z,44.50
2022-09-01T19:27:17.258Z,44.60
2022-09-01T19:29:56.740Z,44.76
2022-09-01T19:32:32.907Z,44.91
2022-09-01T19:35:12.651Z,45.12
2022-09-01T19:37:51.708Z,45.19
2022-09-01T19:40:31.289Z,45.24
2022-09-01T19:43:09.053Z,45.29
2022-09-01T19:45:53.541Z,45.54
2022-09-01T19:48:35.607Z,45.70
2022-09-01T19:51:17.199Z,45.92
2022-09-01T19:53:58.926Z,45.88
2022-09-01T19:56:40.022Z,46.15
2022-09-01T19:59:28.820Z,46.17
2022-09-01T20:02:07.365Z,46.33
2022-09-01T20:04:48.356Z,46.43
2022-09-01T20:07:38.804Z,46.64
2022-09-01T20:10:23.641Z,46.76
2022-09-01T20:13:15.920Z,46.94
2022-09-01T20:15:54.823Z,46.90
2022-09-01T20:18:33.936Z,47.13
2022-09-01T20:21:09.175Z,47.09
2022-09-01T20:23:55.702Z,47.38
2022-09-01T20:26:35.510Z,47.49
2022-09-01T20:29:14.429Z,47.53
2022-09-01T20:31:52.133Z,47.66
2022-09-01T20:34:30.907Z,47.79
2022-09-01T20:37:06.290Z,47.88
2022-09-01T20:40:03.007Z,47.99
2022-09-01T20:42:46.198Z,48.25
2022-09-01T20:45:22.196Z,48.44
2022-09-01T20:48:00.691Z,48.48
2022-09-01T20:50:43.158Z,48.76
2022-09-01T20:53:38.839Z,48.95
2022-09-01T20:56:20.202Z,49.02
2022-09-01T20:59:02.015Z,49.13
2022-09-01T21:01:47.049Z,49.21
2022-09-01T21:04:41.638Z,49.40
2022-09-01T21:07:20.047Z,49.40
2022-09-01T21:10:03.124Z,49.50
2022-09-01T21:12:40.667Z,49.64
2022-09-01T21:15:32.402Z,49.66
2022-09-01T21:18:16.371Z,49.94
2022-09-01T21:21:02.497Z,50.11
2022-09-01T21:23:36.129Z,50.34
2022-09-01T21:26:09.438Z,50.47
2022-09-01T21:28:48.057Z,50.63
2022-09-01T21:31:22.119Z,50.79
2022-09-01T21:33:55.395Z,50.92
2022-09-01T21:36:28.812Z,50.98
2022-09-01T21:39:01.957Z,51.01
2022-09-01T21:41:35.291Z,51.13
2022-09-01T21:44:08.505Z,51.23
2022-09-01T21:46:42.086Z,51.43
2022-09-01T21:49:15.500Z,51.45
2022-09-01T21:51:48.978Z,51.65
2022-09-01T21:54:22.485Z,51.72
2022-09-01T21:56:56.064Z,51.72
2022-09-01T21:59:29.508Z,51.72
2022-09-01T22:02:02.698Z,51.82
2022-09-01T22:04:37.416Z,51.83
2022-09-01T22:07:17.757Z,51.94
2022-09-01T22:09:51.628Z,52.10
2022-09-01T22:12:25.406Z,52.32
2022-09-01T22:14:58.763Z,52.54
2022-09-01T22:17:32.853Z,52.25
2022-09-01T22:20:08.706Z,52.34
2022-09-01T22:22:43.253Z,52.46
2022-09-01T22:25:19.016Z,52.55
2022-09-01T22:27:52.207Z,52.61
2022-09-01T22:30:26.142Z,52.92
2022-09-01T22:33:00.450Z,53.12
2022-09-01T22:35:34.115Z,53.23
2022-09-01T22:38:07.414Z,53.34
2022-09-01T22:40:47.035Z,53.35
2022-09-01T22:43:21.136Z,53.32
2022-09-01T22:45:55.476Z,53.05
2022-09-01T22:48:30.730Z,52.94
2022-09-01T22:51:09.251Z,52.68
2022-09-01T22:53:44.895Z,52.33
2022-09-01T22:56:22.245Z,52.12
2022-09-01T22:58:58.329Z,51.98
2022-09-01T23:01:34.506Z,51.76
2022-09-01T23:04:10.015Z,51.60
2022-09-01T23:06:45.914Z,51.42
2022-09-01T23:09:20.434Z,51.10
2022-09-01T23:11:54.043Z,50.91
2022-09-01T23:14:27.559Z,50.88
2022-09-01T23:17:00.951Z,50.51
2022-09-01T23:19:34.327Z,50.45
2022-09-01T23:22:07.635Z,50.24
2022-09-01T23:24:40.984Z,50.07
2022-09-01T23:27:14.277Z,50.09
2022-09-01T23:29:47.716Z,50.08
2022-09-01T23:32:21.221Z,49.99
2022-09-01T23:34:55.531Z,49.94
2022-09-01T23:37:29.225Z,49.86
2022-09-01T23:40:02.292Z,49.99
2022-09-01T23:42:35.693Z,49.81
2022-09-01T23:45:10.449Z,49.94
2022-09-01T23:47:44.908Z,49.91
2022-09-01T23:50:18.056Z,49.78
2022-09-01T23:52:51.811Z,49.79
2022-09-01T23:55:26.593Z,49.61
2022-09-01T23:58:00.106Z,49.66
